Weather at Stirling Airport

Public forecast

Using degrees Celsius for public forecast. Weather courtesy of forecast.io.

Closest aviation weather report (METAR) to Stirling Airport

Closest report is CFB Trenton, 7.5 nm (13.9 km) S.

2024/07/20 18:00 (retrieved 47 minutes ago)

CYTR 201800Z 21011G16KT 170V230 15SM FEW045 25/17 A3003 RMK CU2 DENSITY ALT 1624FT SLP169

Closest aviation forecast (TAF) to Stirling Airport

Closest forecast is CFB Trenton, 7.5 nm (13.9 km) S.

2024/07/20 18:41 (retrieved 6 minutes ago)

TAF CYTR 201740Z 2018/2118 21012KT P6SM FEW040 SCT250 FM202300 23008KT P6SM FEW060 BKN240 BECMG 2101/2103 VRB03KT FM210900 35005KT P6SM SCT020 BKN050 FM211400 35005KT P6SM SCT040 BECMG 2116/2118 24008KT RMK NXT FCST BY 210000Z